MST,Max TemperatureF,Mean TemperatureF,Min TemperatureF,Max Dew PointF,MeanDew PointF,Min DewpointF,Max Humidity, Mean Humidity, Min Humidity, Max Sea Level PressureIn, Mean Sea Level PressureIn, Min Sea Level PressureIn, Max VisibilityMiles, Mean VisibilityMiles, Min VisibilityMiles, Max Wind SpeedMPH, Mean Wind SpeedMPH, Max Gust SpeedMPH,PrecipitationIn, CloudCover, Events, WindDirDegrees
2014-2-1,15,3,-9,5,-1,-10,83,72,61,30.30,30.18,29.90,10,10,2,20,8,23,0.00,1,,252
2014-2-2,17,10,3,10,6,-2,92,78,63,30.21,30.11,29.96,10,5,2,17,6,21,T,7,Snow,326
2014-2-3,11,-1,-14,6,-1,-18,87,82,76,30.61,30.23,30.01,10,5,1,20,10,22,0.01,8,Snow,6
2014-2-4,-7,-15,-23,-14,-20,-28,86,76,65,30.94,30.72,30.38,10,9,2,15,10,17,T,5,Snow,323
2014-2-5,-7,-18,-30,-15,-19,-30,92,79,65,30.99,30.84,30.55,10,9,2,14,8,15,T,4,Snow,323
2014-2-6,-6,-20,-35,-16,-23,-34,81,69,57,30.74,30.43,30.10,10,10,9,9,2,16,0.00,0,,54
2014-2-7,11,-9,-30,-2,-13,-31,90,73,55,30.11,30.03,29.95,10,10,10,22,9,24,0.00,4,,344
2014-2-8,5,-7,-19,-2,-8,-24,86,79,72,30.48,30.23,29.90,10,9,5,23,11,26,0.00,4,,337
2014-2-9,2,-8,-19,-4,-11,-22,90,82,74,30.41,30.19,29.98,10,4,0,16,8,18,0.00,6,Fog,108
2014-2-10,37,10,-18,26,3,-22,87,73,59,30.28,30.12,29.86,10,10,7,44,14,51,0.00,1,,293
2014-2-11,34,20,5,27,17,0,85,69,53,30.03,29.86,29.72,10,8,0,33,18,41,T,2,Fog-Snow,298
2014-2-12,43,32,21,32,23,12,0,0,0,29.95,29.55,29.27,10,10,10,0,0,0,0.00,0,,232
2014-2-13,41,37,32,31,26,20,89,69,48,29.88,29.65,29.49,10,10,10,43,24,52,T,0,,259
2014-2-14,43,37,31,29,22,16,75,61,47,29.89,29.73,29.55,10,10,10,33,19,41,0.00,1,,245
2014-2-15,45,37,28,29,21,16,82,57,31,29.93,29.76,29.45,10,10,10,32,13,40,0.00,1,,203
2014-2-16,43,36,28,32,21,14,89,62,34,29.78,29.56,29.35,10,10,10,48,24,59,0.00,1,,249
2014-2-17,43,36,28,30,26,17,85,67,49,29.71,29.58,29.49,10,8,0,38,19,48,0.03,2,Fog-Snow,244
2014-2-18,39,32,24,26,21,16,81,67,52,29.87,29.71,29.41,10,10,10,45,19,52,0.00,0,,235
2014-2-19,35,28,20,29,17,12,85,63,41,29.94,29.61,29.38,10,10,9,47,26,58,T,4,Snow,271
2014-2-20,38,28,18,21,15,9,88,66,43,29.96,29.83,29.70,10,10,10,38,19,46,0.00,2,,261
2014-2-21,28,19,9,21,15,4,88,78,68,30.17,29.92,29.75,10,5,0,26,15,32,0.01,7,Snow,338
2014-2-22,19,9,-2,8,4,-4,87,74,61,30.34,30.19,30.03,10,7,1,15,7,18,T,7,Snow,63
2014-2-23,8,2,-4,2,-5,-9,88,78,68,30.48,30.28,30.13,10,4,1,18,10,22,T,8,Snow,13
2014-2-24,4,-7,-18,-5,-10,-20,92,80,68,30.57,30.41,30.16,10,7,2,13,6,14,T,4,Snow,347
2014-2-25,15,1,-14,-2,-12,-20,78,62,46,30.70,30.56,30.38,10,10,10,16,8,18,0.00,0,,269
2014-2-26,38,14,-11,17,5,-14,80,62,43,30.33,30.14,29.93,10,10,10,15,6,19,0.00,0,,280
2014-2-27,34,19,3,19,8,-1,88,72,56,30.06,29.82,29.66,10,10,4,30,11,35,T,5,Snow,343
2014-2-28,10,-3,-17,5,-9,-21,83,70,56,30.57,30.21,29.91,10,6,2,21,12,26,T,8,Snow,4